createdAt,value
2016-07-04T00:00:58.436Z,14.41
2016-07-04T00:01:58.137Z,14.37
2016-07-04T00:02:58.181Z,14.36
2016-07-04T00:03:58.195Z,14.45
2016-07-04T00:04:58.223Z,14.4
2016-07-04T00:05:58.171Z,14.48
2016-07-04T00:06:58.244Z,14.47
2016-07-04T00:07:58.333Z,14.48
2016-07-04T00:08:58.296Z,14.45
2016-07-04T00:09:58.165Z,14.53
2016-07-04T00:10:58.172Z,14.54
2016-07-04T00:11:58.175Z,14.47
2016-07-04T00:12:58.185Z,14.54
2016-07-04T00:13:58.255Z,14.51
2016-07-04T00:14:58.239Z,14.6
2016-07-04T00:15:58.308Z,14.65
2016-07-04T00:16:58.236Z,14.48
2016-07-04T00:17:58.198Z,14.48
2016-07-04T00:18:58.204Z,14.4
2016-07-04T00:19:58.219Z,14.48
2016-07-04T00:20:58.309Z,14.48
2016-07-04T00:21:58.379Z,14.54
2016-07-04T00:22:58.259Z,14.54
2016-07-04T00:23:57.898Z,14.54
2016-07-04T00:24:58.198Z,14.45
2016-07-04T00:25:58.216Z,14.66
2016-07-04T00:26:58.265Z,14.53
2016-07-04T00:27:58.281Z,14.59
2016-07-04T00:28:58.768Z,14.63
2016-07-04T00:29:58.259Z,14.69
2016-07-04T00:30:58.161Z,14.66
2016-07-04T00:31:58.201Z,14.6
2016-07-04T00:32:58.249Z,14.65
2016-07-04T00:33:58.218Z,14.7
2016-07-04T00:34:58.279Z,14.78
2016-07-04T00:35:58.042Z,14.81
2016-07-04T00:36:58.172Z,14.84
2016-07-04T00:37:58.138Z,14.82
2016-07-04T00:38:58.027Z,14.81
2016-07-04T00:39:58.283Z,14.81
2016-07-04T00:40:58.223Z,14.81
2016-07-04T00:41:58.223Z,14.69
2016-07-04T00:42:58.160Z,14.78
2016-07-04T00:43:58.066Z,14.81
2016-07-04T00:44:58.272Z,14.82
2016-07-04T00:45:58.216Z,14.85
2016-07-04T00:46:58.201Z,14.89
2016-07-04T00:47:58.304Z,14.72
2016-07-04T00:48:58.148Z,14.84
2016-07-04T00:49:58.223Z,14.85
2016-07-04T00:50:58.305Z,14.78
2016-07-04T01:03:16.295Z,14.72
2016-07-04T01:04:16.169Z,14.82
2016-07-04T01:05:16.069Z,14.73
2016-07-04T01:06:16.309Z,14.81
2016-07-04T01:07:16.551Z,14.84
2016-07-04T01:08:17.031Z,14.7
2016-07-04T01:09:16.111Z,14.73
2016-07-04T01:10:16.150Z,14.82
2016-07-04T01:11:16.351Z,14.7
2016-07-04T01:12:16.215Z,14.84
2016-07-04T01:13:16.190Z,14.72
2016-07-04T01:14:16.161Z,14.78
2016-07-04T01:15:16.091Z,14.79
2016-07-04T01:16:16.090Z,14.85
2016-07-04T01:17:16.131Z,14.84
2016-07-04T01:18:16.084Z,14.89
2016-07-04T01:19:16.852Z,14.84
2016-07-04T01:20:16.876Z,14.88
2016-07-04T01:21:16.168Z,14.86
2016-07-04T01:22:16.054Z,14.97
2016-07-04T01:23:16.172Z,14.82
2016-07-04T01:24:17.123Z,14.88
2016-07-04T01:25:16.092Z,14.92
2016-07-04T01:26:16.154Z,14.97
2016-07-04T01:27:16.615Z,14.99
2016-07-04T01:28:16.103Z,15.04
2016-07-04T01:29:16.154Z,14.94
2016-07-04T01:30:16.177Z,15.03
2016-07-04T01:31:16.441Z,15
2016-07-04T01:32:16.043Z,14.89
2016-07-04T01:33:16.035Z,14.96
2016-07-04T01:46:16.522Z,14.94
2016-07-04T01:46:33.853Z,14.84
2016-07-04T01:47:33.859Z,14.84
2016-07-04T02:00:34.559Z,14.78
2016-07-04T02:00:52.175Z,14.89
2016-07-04T02:01:52.039Z,14.86
2016-07-04T02:02:52.099Z,14.86
2016-07-04T02:03:52.140Z,14.89
2016-07-04T02:04:53.339Z,14.84
2016-07-04T02:05:52.021Z,14.86
2016-07-04T02:06:51.955Z,14.85
2016-07-04T02:07:52.023Z,14.84
2016-07-04T02:08:53.179Z,14.84
2016-07-04T02:09:52.333Z,14.82
2016-07-04T02:10:52.090Z,14.72
2016-07-04T02:11:53.466Z,14.88
2016-07-04T02:12:52.028Z,14.88
2016-07-04T02:13:52.844Z,14.85
2016-07-04T02:14:53.222Z,14.73
2016-07-04T02:15:52.071Z,14.81
2016-07-04T02:16:51.921Z,14.79
2016-07-04T02:17:51.974Z,14.85
2016-07-04T02:18:52.049Z,14.82
2016-07-04T02:19:52.123Z,14.77
2016-07-04T02:20:51.956Z,14.77
2016-07-04T02:21:51.982Z,14.82
2016-07-04T02:22:52.005Z,14.7
2016-07-04T02:23:52.005Z,14.68
2016-07-04T02:24:51.506Z,14.65
2016-07-04T02:25:52.031Z,14.63
2016-07-04T02:26:52.064Z,14.6
2016-07-04T02:27:52.087Z,14.65
2016-07-04T02:28:52.086Z,14.53
2016-07-04T02:29:52.307Z,14.58
2016-07-04T02:30:51.983Z,14.62
2016-07-04T02:31:52.136Z,14.59
2016-07-04T02:32:52.127Z,14.54
2016-07-04T02:33:52.087Z,14.53
2016-07-04T02:34:51.925Z,14.53
2016-07-04T02:35:52.067Z,14.47
2016-07-04T02:36:52.103Z,14.51
2016-07-04T02:37:52.168Z,14.5
2016-07-04T02:38:51.969Z,14.51
2016-07-04T02:39:52.228Z,14.44
2016-07-04T02:40:51.793Z,14.45
2016-07-04T02:41:52.031Z,14.47
2016-07-04T02:42:51.833Z,14.41
2016-07-04T02:43:52.690Z,14.29
2016-07-04T02:44:52.707Z,14.47
2016-07-04T02:45:52.050Z,14.32
2016-07-04T02:46:52.042Z,14.33
2016-07-04T02:47:51.845Z,14.28
2016-07-04T02:48:52.046Z,14.29
2016-07-04T02:49:52.009Z,14.28
2016-07-04T02:50:52.047Z,14.3
2016-07-04T02:51:52.029Z,14.23
2016-07-04T02:52:52.064Z,14.32
2016-07-04T02:53:52.059Z,14.32
2016-07-04T02:54:51.990Z,14.28
2016-07-04T02:55:52.150Z,14.32
2016-07-04T02:56:52.106Z,14.37
2016-07-04T02:57:52.020Z,14.41
2016-07-04T02:58:52.047Z,14.37
2016-07-04T02:59:52.146Z,14.37
2016-07-04T03:00:52.091Z,14.36
2016-07-04T03:01:51.950Z,14.35
2016-07-04T03:02:53.109Z,14.3
2016-07-04T03:03:51.987Z,14.37
2016-07-04T03:04:52.230Z,14.3
2016-07-04T03:05:53.002Z,14.32
2016-07-04T03:06:52.010Z,14.25
2016-07-04T03:07:52.031Z,14.33
2016-07-04T03:08:52.130Z,14.26
2016-07-04T03:09:52.071Z,14.33
2016-07-04T03:10:52.070Z,14.28
2016-07-04T03:11:52.049Z,14.33
2016-07-04T03:12:51.950Z,14.32
2016-07-04T03:13:51.990Z,14.33
2016-07-04T03:14:52.169Z,14.32
2016-07-04T03:15:52.006Z,14.41
2016-07-04T03:16:52.108Z,14.43
2016-07-04T03:17:51.926Z,14.53
2016-07-04T03:18:52.023Z,14.48
2016-07-04T03:19:51.977Z,14.45
2016-07-04T03:20:51.978Z,14.48
2016-07-04T03:21:51.968Z,14.32
2016-07-04T03:22:52.006Z,14.48
2016-07-04T03:23:51.949Z,14.62
2016-07-04T03:24:51.979Z,14.48
2016-07-04T03:25:52.031Z,14.51
2016-07-04T03:26:51.948Z,14.6
2016-07-04T03:27:51.969Z,14.54
2016-07-04T03:28:51.982Z,14.5
2016-07-04T03:29:51.936Z,14.63
2016-07-04T03:30:51.921Z,14.68
2016-07-04T03:31:51.880Z,14.6
2016-07-04T03:32:51.922Z,14.65
2016-07-04T03:33:51.801Z,14.63
2016-07-04T03:34:51.903Z,14.59
2016-07-04T03:35:51.881Z,14.63
2016-07-04T03:36:51.882Z,14.54
2016-07-04T03:37:51.860Z,14.5
2016-07-04T03:38:51.827Z,14.53
2016-07-04T03:39:53.240Z,14.51
2016-07-04T03:40:51.901Z,14.45
2016-07-04T03:41:51.908Z,14.45
2016-07-04T03:42:51.931Z,14.55
2016-07-04T03:43:51.852Z,14.58
2016-07-04T03:44:51.822Z,14.55
2016-07-04T03:45:52.426Z,14.6
2016-07-04T03:46:51.890Z,14.58
2016-07-04T03:47:51.892Z,14.54
2016-07-04T03:48:51.842Z,14.63
2016-07-04T03:49:51.793Z,14.59
2016-07-04T03:50:51.887Z,14.59
2016-07-04T03:51:51.832Z,14.55
2016-07-04T03:52:51.871Z,14.58
2016-07-04T03:53:52.361Z,14.6
2016-07-04T03:54:51.842Z,14.59
2016-07-04T03:55:51.826Z,14.63
2016-07-04T03:56:51.772Z,14.59
2016-07-04T03:57:51.832Z,14.68
2016-07-04T03:58:51.962Z,14.7
2016-07-04T03:59:52.433Z,14.69
2016-07-04T04:00:51.803Z,14.66
2016-07-04T04:01:51.822Z,14.62
2016-07-04T04:02:51.752Z,14.62
2016-07-04T04:03:51.800Z,14.79
2016-07-04T04:04:51.869Z,14.69
2016-07-04T04:05:51.784Z,14.58
2016-07-04T04:06:51.785Z,14.59
2016-07-04T04:07:51.845Z,14.79
2016-07-04T04:20:52.509Z,14.94
2016-07-04T04:21:09.478Z,15.02
2016-07-04T04:22:09.591Z,15
2016-07-04T04:23:09.550Z,15.03
2016-07-04T04:24:09.454Z,15.03
2016-07-04T04:25:09.411Z,14.96
2016-07-04T04:26:09.454Z,14.89
2016-07-04T04:27:09.389Z,15.02
2016-07-04T04:28:09.428Z,14.99
2016-07-04T04:29:09.331Z,15
2016-07-04T04:30:09.476Z,14.89
2016-07-04T04:31:09.375Z,15.03
2016-07-04T04:32:09.412Z,15.1
2016-07-04T04:33:09.487Z,15.18
2016-07-04T04:34:09.325Z,15.28
2016-07-04T04:35:09.466Z,15.27
2016-07-04T04:36:09.421Z,15.27
2016-07-04T04:37:09.395Z,15.24
2016-07-04T04:38:09.537Z,15.21
2016-07-04T04:39:09.420Z,15.21
2016-07-04T04:40:09.453Z,15.24
2016-07-04T04:41:09.415Z,15.22
2016-07-04T04:42:09.385Z,15.19
2016-07-04T04:43:09.502Z,15.27
2016-07-04T04:44:09.433Z,15.31
2016-07-04T04:45:09.421Z,15.4
2016-07-04T04:46:09.415Z,15.37
2016-07-04T04:47:09.446Z,15.39
2016-07-04T04:48:09.416Z,15.43
2016-07-04T04:49:09.378Z,15.37
2016-07-04T04:50:09.437Z,15.37
2016-07-04T04:51:09.356Z,15.36
2016-07-04T04:52:09.458Z,15.36
2016-07-04T04:53:09.425Z,15.4
2016-07-04T04:54:09.425Z,15.4
2016-07-04T04:55:09.455Z,15.37
2016-07-04T04:56:09.366Z,15.47
2016-07-04T04:57:09.504Z,15.43
2016-07-04T04:58:09.523Z,15.42
2016-07-04T04:59:09.538Z,15.4
2016-07-04T05:00:09.479Z,15.49
2016-07-04T05:01:09.416Z,15.51
2016-07-04T05:02:09.487Z,15.49
2016-07-04T05:03:09.518Z,15.57
2016-07-04T05:04:09.540Z,15.54
2016-07-04T05:05:09.414Z,15.55
2016-07-04T05:06:09.540Z,15.58
2016-07-04T05:07:09.495Z,15.62
2016-07-04T05:08:09.529Z,15.64
2016-07-04T05:09:09.489Z,15.61
2016-07-04T05:10:09.407Z,15.59
2016-07-04T05:11:09.416Z,15.58
2016-07-04T05:12:09.541Z,15.61
2016-07-04T05:13:09.607Z,15.57
2016-07-04T05:14:09.581Z,15.55
2016-07-04T05:15:09.649Z,15.61
2016-07-04T05:16:09.505Z,15.67
2016-07-04T05:17:09.589Z,15.57
2016-07-04T05:18:09.447Z,15.65
2016-07-04T05:19:09.508Z,15.7
2016-07-04T05:20:10.116Z,15.67
2016-07-04T05:21:09.470Z,15.72
2016-07-04T05:22:09.622Z,15.72
2016-07-04T05:23:09.510Z,15.73
2016-07-04T05:24:09.443Z,15.8
2016-07-04T05:25:09.661Z,15.83
2016-07-04T05:26:09.480Z,15.8
2016-07-04T05:27:09.434Z,15.84
2016-07-04T05:28:09.458Z,15.84
2016-07-04T05:29:09.378Z,15.75
2016-07-04T05:30:09.516Z,15.86
2016-07-04T05:31:09.444Z,15.91
2016-07-04T05:32:09.726Z,15.97
2016-07-04T05:33:09.354Z,15.91
2016-07-04T05:34:09.474Z,15.79
2016-07-04T05:35:10.041Z,15.84
2016-07-04T05:36:09.723Z,15.9
2016-07-04T05:37:14.918Z,15.82
2016-07-04T05:38:09.750Z,15.98
2016-07-04T05:39:12.466Z,15.95
2016-07-04T05:40:09.505Z,16.08
2016-07-04T05:41:09.364Z,16.12
2016-07-04T05:42:09.461Z,16.15
2016-07-04T05:43:09.533Z,16.24
2016-07-04T05:44:09.390Z,16.24
2016-07-04T05:45:09.426Z,16.17
2016-07-04T05:46:09.519Z,16.24
2016-07-04T05:47:09.461Z,16.31
2016-07-04T05:48:09.700Z,16.39
2016-07-04T05:49:09.731Z,16.41
2016-07-04T05:50:09.668Z,16.64
2016-07-04T05:51:09.672Z,16.57
2016-07-04T05:52:09.487Z,16.53
2016-07-04T05:53:09.599Z,16.64
2016-07-04T05:54:09.657Z,16.72
2016-07-04T05:55:09.520Z,17.01
2016-07-04T05:56:09.466Z,16.91
2016-07-04T05:57:09.699Z,17.11
2016-07-04T05:58:09.684Z,17.22
2016-07-04T05:59:09.560Z,17.49
2016-07-04T06:00:09.856Z,17.8
2016-07-04T06:01:09.570Z,18.15
2016-07-04T06:02:09.554Z,18.25
2016-07-04T06:03:09.567Z,18.2
2016-07-04T06:04:09.705Z,18.18
2016-07-04T06:05:09.531Z,18.18
2016-07-04T06:06:10.031Z,18.07
2016-07-04T06:07:09.670Z,18.11
2016-07-04T06:08:09.564Z,17.98
2016-07-04T06:09:09.662Z,17.94
2016-07-04T06:10:09.611Z,17.72
2016-07-04T06:11:09.646Z,17.76
2016-07-04T06:12:09.726Z,17.76
2016-07-04T06:13:09.641Z,17.71
2016-07-04T06:14:09.582Z,17.6
2016-07-04T06:15:09.587Z,17.49
2016-07-04T06:16:09.507Z,17.39
2016-07-04T06:17:09.669Z,17.3
2016-07-04T06:18:09.711Z,17.23
2016-07-04T06:19:09.736Z,17.26
2016-07-04T06:20:09.947Z,17.3
2016-07-04T06:21:09.728Z,17.27
2016-07-04T06:22:09.615Z,17.31
2016-07-04T06:23:09.575Z,17.26
2016-07-04T06:24:09.632Z,17.27
2016-07-04T06:25:10.251Z,17.36
2016-07-04T06:26:09.731Z,17.41
2016-07-04T06:27:09.504Z,17.57
2016-07-04T06:28:09.604Z,17.57
2016-07-04T06:29:09.559Z,17.72
2016-07-04T06:30:10.143Z,17.83
2016-07-04T06:31:09.759Z,17.98
2016-07-04T06:32:09.648Z,17.98
2016-07-04T06:33:09.718Z,17.95
2016-07-04T06:34:09.527Z,18.01
2016-07-04T06:35:10.094Z,17.95
2016-07-04T06:36:10.129Z,18.03
2016-07-04T06:37:09.627Z,17.9
2016-07-04T06:38:09.504Z,18.04
2016-07-04T06:39:09.522Z,18.01
2016-07-04T06:40:09.644Z,17.98
2016-07-04T06:41:09.528Z,17.97
2016-07-04T06:42:09.639Z,17.92
2016-07-04T06:43:09.510Z,18
2016-07-04T06:44:09.540Z,17.86
2016-07-04T06:45:09.440Z,17.78
2016-07-04T06:46:09.498Z,17.92
2016-07-04T06:47:09.746Z,18.1
2016-07-04T06:48:09.729Z,18.11
2016-07-04T06:49:09.710Z,18.03
2016-07-04T06:50:09.869Z,18.23
2016-07-04T06:51:10.669Z,18.22
2016-07-04T06:52:09.441Z,18.28
2016-07-04T06:53:09.524Z,18.31
2016-07-04T06:54:09.547Z,18.4
2016-07-04T06:55:09.564Z,18.47
2016-07-04T06:56:09.470Z,18.5
2016-07-04T06:57:09.799Z,18.6
2016-07-04T06:58:09.609Z,18.6
2016-07-04T06:59:09.517Z,18.66
2016-07-04T07:00:10.437Z,18.71
2016-07-04T07:01:09.401Z,18.84
2016-07-04T07:02:09.404Z,18.81
2016-07-04T07:03:09.396Z,18.9
2016-07-04T07:04:08.953Z,18.68
2016-07-04T07:05:09.646Z,18.65
2016-07-04T07:06:10.192Z,18.6
2016-07-04T07:07:09.525Z,18.56
2016-07-04T07:08:09.480Z,18.47
2016-07-04T07:09:09.422Z,18.63
2016-07-04T07:10:09.482Z,18.56
2016-07-04T07:11:09.537Z,18.62
2016-07-04T07:12:09.549Z,18.62
2016-07-04T07:13:09.601Z,18.58
2016-07-04T07:14:09.514Z,18.59
2016-07-04T07:15:09.565Z,18.49
2016-07-04T07:16:11.645Z,18.33
2016-07-04T07:17:09.719Z,18.28
2016-07-04T07:18:09.450Z,18.4
2016-07-04T07:19:09.597Z,18.53
2016-07-04T07:20:09.539Z,18.65
2016-07-04T07:21:09.581Z,18.65
2016-07-04T07:22:09.590Z,18.59
2016-07-04T07:23:09.482Z,18.65
2016-07-04T07:24:09.472Z,18.68
2016-07-04T07:25:09.444Z,18.68
2016-07-04T07:26:09.711Z,18.68
2016-07-04T07:27:09.658Z,18.7
2016-07-04T07:28:09.552Z,18.86
2016-07-04T07:29:09.657Z,18.98
2016-07-04T07:30:09.554Z,19.12
2016-07-04T07:31:09.499Z,19.27
2016-07-04T07:32:09.426Z,19.24
2016-07-04T07:33:09.563Z,19.31
2016-07-04T07:34:09.401Z,19.44
2016-07-04T07:35:09.464Z,19.51
2016-07-04T07:36:09.443Z,19.92
2016-07-04T07:37:09.385Z,20.09
2016-07-04T07:38:09.393Z,20.34
2016-07-04T07:39:09.511Z,20.31
2016-07-04T07:40:09.681Z,20.51
2016-07-04T07:41:09.646Z,20.52
2016-07-04T07:42:09.959Z,20.66
2016-07-04T07:43:09.652Z,20.75
2016-07-04T07:44:10.191Z,20.66
2016-07-04T07:45:09.410Z,20.7
2016-07-04T07:46:09.437Z,20.77
2016-07-04T07:47:09.697Z,20.96
2016-07-04T07:48:09.605Z,21.03
2016-07-04T07:49:10.497Z,21.57
2016-07-04T07:50:09.763Z,22.55
2016-07-04T07:51:10.467Z,23.62
2016-07-04T07:52:09.566Z,24.85
2016-07-04T07:53:10.185Z,25.8
2016-07-04T07:54:09.441Z,26.53
2016-07-04T07:55:09.486Z,26.65
2016-07-04T07:56:09.455Z,27.07
2016-07-04T07:57:09.568Z,27.42
2016-07-04T07:58:09.493Z,27.95
2016-07-04T07:59:09.492Z,28.2
2016-07-04T08:00:09.586Z,28.39
2016-07-04T08:01:09.474Z,28.54
2016-07-04T08:02:09.477Z,28.67
2016-07-04T08:03:09.449Z,28.49
2016-07-04T08:04:09.534Z,28.59
2016-07-04T08:05:09.421Z,28.62
2016-07-04T08:06:09.394Z,29.01
2016-07-04T08:07:09.394Z,29.01
2016-07-04T08:08:09.412Z,27.83
2016-07-04T08:09:09.444Z,27.77
2016-07-04T08:10:09.878Z,28
2016-07-04T08:11:09.523Z,28.22
2016-07-04T08:12:09.460Z,28.49
2016-07-04T08:13:09.418Z,28.35
2016-07-04T08:14:09.446Z,28.19
2016-07-04T08:15:09.477Z,28.12
2016-07-04T08:16:09.536Z,28.26
2016-07-04T08:17:10.591Z,28.47
2016-07-04T08:18:10.803Z,28.47
2016-07-04T08:19:13.144Z,28.82
2016-07-04T08:20:12.913Z,29.07
2016-07-04T08:21:14.833Z,29.13
2016-07-04T08:22:09.390Z,29.59
2016-07-04T08:23:09.495Z,28.74
2016-07-04T08:24:09.452Z,28.91
2016-07-04T08:25:09.427Z,28.7
2016-07-04T08:26:09.424Z,29.05
2016-07-04T08:27:09.427Z,29.42
2016-07-04T08:28:09.422Z,29.91
2016-07-04T08:29:09.436Z,29.82
2016-07-04T08:30:09.436Z,29.23
2016-07-04T08:31:09.382Z,29.41
2016-07-04T08:32:09.398Z,29.2
2016-07-04T08:33:09.399Z,28.69
2016-07-04T08:34:09.493Z,28.78
2016-07-04T08:35:09.642Z,29.1
2016-07-04T08:36:09.400Z,29.27
2016-07-04T08:37:09.456Z,29.6
2016-07-04T08:38:09.391Z,29.35
2016-07-04T08:39:09.473Z,29.63
2016-07-04T08:40:09.464Z,29.66
2016-07-04T08:41:09.482Z,29.66
2016-07-04T08:42:09.556Z,29.57
2016-07-04T08:43:09.505Z,29.61
2016-07-04T08:44:09.506Z,29.87
2016-07-04T08:45:15.573Z,30.25
2016-07-04T08:46:14.718Z,30.18
2016-07-04T08:47:09.536Z,29.95
2016-07-04T08:48:09.480Z,29.31
2016-07-04T08:49:09.433Z,29.08
2016-07-04T08:50:15.766Z,29.47
2016-07-04T08:51:09.449Z,29.32
2016-07-04T08:52:14.637Z,29.63
2016-07-04T08:54:09.675Z,29.31
2016-07-04T08:55:09.896Z,29.45
2016-07-04T08:57:14.934Z,29.19
2016-07-04T08:58:14.993Z,29.23
2016-07-04T08:59:09.891Z,28.72
2016-07-04T09:00:09.487Z,29.45
2016-07-04T09:26:09.514Z,29.6
2016-07-04T09:27:09.470Z,30.05
2016-07-04T09:28:09.498Z,29.5
2016-07-04T09:29:09.459Z,29.12
2016-07-04T09:30:09.498Z,29.1
2016-07-04T09:31:09.446Z,29.9
2016-07-04T09:32:09.485Z,30.03
2016-07-04T09:33:09.464Z,29.95
2016-07-04T09:34:09.506Z,30.44
2016-07-04T09:35:10.276Z,29.78
2016-07-04T09:36:09.506Z,28.66
2016-07-04T09:37:09.495Z,27.92
2016-07-04T09:49:26.931Z,22.88
2016-07-04T09:50:26.943Z,22.63
2016-07-04T09:51:26.911Z,22.55
2016-07-04T09:52:26.939Z,22.55
2016-07-04T09:53:26.953Z,22.57
2016-07-04T09:54:26.956Z,22.54
2016-07-04T09:55:26.911Z,22.5
2016-07-04T09:56:26.934Z,22.59
2016-07-04T09:57:26.929Z,22.5
2016-07-04T09:58:26.939Z,22.36
2016-07-04T09:59:26.928Z,22.3
2016-07-04T10:00:26.972Z,22.32
2016-07-04T10:01:27.555Z,22.36
2016-07-04T10:02:27.610Z,22.33
2016-07-04T10:03:26.953Z,22.43
2016-07-04T10:04:26.936Z,23.36
2016-07-04T10:16:44.306Z,26.55
2016-07-04T10:17:44.251Z,26.09
2016-07-04T10:18:44.300Z,25.38
2016-07-04T10:19:44.258Z,24.77
2016-07-04T10:20:44.267Z,24.23
2016-07-04T10:21:44.261Z,24.92
2016-07-04T10:22:44.504Z,25.72
2016-07-04T10:23:44.265Z,26.16
2016-07-04T10:24:44.361Z,26.8
2016-07-04T10:25:44.296Z,27.77
2016-07-04T10:26:44.278Z,28.23
2016-07-04T10:27:44.258Z,27.71
2016-07-04T10:28:44.304Z,26.7
2016-07-04T10:29:44.242Z,25.75
2016-07-04T10:30:44.366Z,25.01
2016-07-04T10:31:44.268Z,24.91
2016-07-04T10:32:45.266Z,25.59
2016-07-04T10:33:44.230Z,26.7
2016-07-04T10:34:44.265Z,26.9
2016-07-04T10:35:44.302Z,27.29
2016-07-04T10:36:44.260Z,27.2
2016-07-04T10:37:44.287Z,26.97
2016-07-04T10:38:44.286Z,27.6
2016-07-04T10:39:44.340Z,28.3
2016-07-04T10:40:44.313Z,28.86
2016-07-04T10:41:44.317Z,28.37
2016-07-04T10:42:44.287Z,28.54
2016-07-04T10:43:44.304Z,29.2
2016-07-04T10:44:44.412Z,28.82
2016-07-04T10:45:44.272Z,28.89
2016-07-04T10:46:44.402Z,28.19
2016-07-04T10:47:44.275Z,28.42
2016-07-04T10:48:44.322Z,29.16
2016-07-04T10:49:44.317Z,28.91
2016-07-04T10:50:44.312Z,29.26
2016-07-04T10:51:44.306Z,28.82
2016-07-04T10:52:44.324Z,28.42
2016-07-04T10:53:44.320Z,28.76
2016-07-04T10:54:44.265Z,28.94
2016-07-04T10:55:44.273Z,28.19
2016-07-04T10:56:44.296Z,27.83
2016-07-04T10:57:44.308Z,27.37
2016-07-04T10:58:44.302Z,26.63
2016-07-04T10:59:44.309Z,27.15
2016-07-04T11:00:44.313Z,27.55
2016-07-04T11:01:44.304Z,26.68
2016-07-04T11:02:44.320Z,26.53
2016-07-04T11:03:45.182Z,26.18
2016-07-04T11:04:46.830Z,25.43
2016-07-04T11:05:44.428Z,25.18
2016-07-04T11:06:44.304Z,25.01
2016-07-04T11:07:44.316Z,24.99
2016-07-04T11:08:44.302Z,24.74
2016-07-04T11:09:44.290Z,24.51
2016-07-04T11:10:44.286Z,24.08
2016-07-04T11:11:44.278Z,24.16
2016-07-04T11:12:44.317Z,24.29
2016-07-04T11:13:44.308Z,24.3
2016-07-04T11:14:44.289Z,24.01
2016-07-04T11:15:44.364Z,23.83
2016-07-04T11:16:44.309Z,23.93
2016-07-04T11:17:44.325Z,24.03
2016-07-04T11:18:44.372Z,24.13
2016-07-04T11:19:44.588Z,24.13
2016-07-04T11:20:44.330Z,24.21
2016-07-04T11:21:44.306Z,24.39
2016-07-04T11:22:44.329Z,24.78
2016-07-04T11:23:44.337Z,26.31
2016-07-04T11:24:44.377Z,27.37
2016-07-04T11:25:44.379Z,28.14
2016-07-04T11:26:45.258Z,29.13
2016-07-04T11:27:44.666Z,28.15
2016-07-04T11:28:44.313Z,27.39
2016-07-04T11:29:44.306Z,26.73
2016-07-04T11:30:44.315Z,26.16
2016-07-04T11:31:44.362Z,25.84
2016-07-04T11:32:44.336Z,25.41
2016-07-04T11:33:44.335Z,24.7
2016-07-04T11:34:44.329Z,24.6
2016-07-04T11:35:44.344Z,24.53
2016-07-04T11:36:44.361Z,24.42
2016-07-04T11:37:44.358Z,24.45
2016-07-04T11:38:44.386Z,24.45
2016-07-04T11:39:44.418Z,24.63
2016-07-04T11:40:44.329Z,24.6
2016-07-04T11:41:44.314Z,24.73
2016-07-04T11:42:44.355Z,25.04
2016-07-04T11:43:44.331Z,24.69
2016-07-04T11:44:44.332Z,24.66
2016-07-04T11:45:44.316Z,24.66
2016-07-04T11:46:44.294Z,24.4
2016-07-04T11:47:44.339Z,24.35
2016-07-04T11:48:44.303Z,24.24
2016-07-04T11:49:44.360Z,24.99
2016-07-04T11:50:44.337Z,25.81
2016-07-04T11:51:45.325Z,26.05
2016-07-04T11:52:44.446Z,27.1
2016-07-04T11:53:44.327Z,27.78
2016-07-04T11:54:44.331Z,28.82
2016-07-04T11:55:44.369Z,29.26
2016-07-04T11:56:44.348Z,29.39
2016-07-04T11:57:44.339Z,29.97
2016-07-04T11:58:44.342Z,29.35
2016-07-04T11:59:44.327Z,28.69
2016-07-04T12:00:44.340Z,28.89
2016-07-04T12:01:44.330Z,29.73
2016-07-04T12:02:44.365Z,30.12
2016-07-04T12:03:44.318Z,29.82
2016-07-04T12:04:44.369Z,30.4
2016-07-04T12:05:44.353Z,29.73
2016-07-04T12:06:44.361Z,28.97
2016-07-04T12:07:44.329Z,28.81
2016-07-04T12:08:45.227Z,27.95
2016-07-04T12:09:44.368Z,27.12
2016-07-04T12:10:44.380Z,26.33
2016-07-04T12:11:44.382Z,26.06
2016-07-04T12:12:44.363Z,25.48
2016-07-04T12:13:44.397Z,25.04
2016-07-04T12:14:45.534Z,24.91
2016-07-04T12:15:44.345Z,24.84
2016-07-04T12:16:45.030Z,24.78
2016-07-04T12:17:44.495Z,24.57
2016-07-04T12:18:44.366Z,24.54
2016-07-04T12:19:44.341Z,24.54
2016-07-04T12:20:44.371Z,24.48
2016-07-04T12:21:44.335Z,24.29
2016-07-04T12:22:44.351Z,24.38
2016-07-04T12:23:44.335Z,24.33
2016-07-04T12:24:44.373Z,24.03
2016-07-04T12:25:44.364Z,24.06
2016-07-04T12:26:44.345Z,24.13
2016-07-04T12:27:44.333Z,24.11
2016-07-04T12:28:45.224Z,24.1
2016-07-04T12:29:44.349Z,24.26
2016-07-04T12:30:47.462Z,24.45
2016-07-04T12:31:44.352Z,24.26
2016-07-04T12:32:44.338Z,23.95
2016-07-04T12:33:44.376Z,23.91
2016-07-04T12:34:44.338Z,23.76
2016-07-04T12:35:44.665Z,23.59
2016-07-04T12:36:44.456Z,23.83
2016-07-04T12:37:44.353Z,24.29
2016-07-04T12:38:44.365Z,24.86
2016-07-04T12:39:45.092Z,25.84
2016-07-04T12:40:44.356Z,26.71
2016-07-04T12:41:44.396Z,27.58
2016-07-04T12:42:44.389Z,28.69
2016-07-04T12:43:44.378Z,29.39
2016-07-04T12:44:44.368Z,29.78
2016-07-04T12:45:44.378Z,29.5
2016-07-04T12:46:45.601Z,29.54
2016-07-04T12:47:44.377Z,28.72
2016-07-04T12:48:44.385Z,28.02
2016-07-04T12:49:44.374Z,26.83
2016-07-04T12:50:44.471Z,25.78
2016-07-04T12:51:44.365Z,25.95
2016-07-04T12:52:44.364Z,26.1
2016-07-04T12:53:44.400Z,25.59
2016-07-04T12:54:44.400Z,25.04
2016-07-04T12:55:44.401Z,24.93
2016-07-04T12:56:44.394Z,24.89
2016-07-04T12:57:44.413Z,24.76
2016-07-04T12:58:44.370Z,24.57
2016-07-04T12:59:44.368Z,24.35
2016-07-04T13:00:44.371Z,24.13
2016-07-04T13:01:44.394Z,23.74
2016-07-04T13:02:44.368Z,23.58
2016-07-04T13:03:44.388Z,23.61
2016-07-04T13:04:44.372Z,23.73
2016-07-04T13:05:44.395Z,23.8
2016-07-04T13:06:44.402Z,23.74
2016-07-04T13:07:44.372Z,23.76
2016-07-04T13:08:44.363Z,23.77
2016-07-04T13:09:44.394Z,23.92
2016-07-04T13:10:44.356Z,24.91
2016-07-04T13:11:44.410Z,25.85
2016-07-04T13:12:47.471Z,26.22
2016-07-04T13:13:45.204Z,26.48
2016-07-04T13:14:44.390Z,26.99
2016-07-04T13:15:44.357Z,27.15
2016-07-04T13:16:44.433Z,27.02
2016-07-04T13:17:44.360Z,26.66
2016-07-04T13:18:44.376Z,26.48
2016-07-04T13:19:44.410Z,26.25
2016-07-04T13:20:44.398Z,26
2016-07-04T13:21:44.468Z,25.81
2016-07-04T13:22:44.404Z,25.68
2016-07-04T13:23:44.377Z,25.47
2016-07-04T13:24:44.402Z,25.26
2016-07-04T13:25:44.393Z,24.88
2016-07-04T13:26:44.432Z,24.74
2016-07-04T13:27:44.408Z,24.6
2016-07-04T13:28:44.416Z,24.4
2016-07-04T13:29:44.410Z,24.36
2016-07-04T13:30:44.446Z,24.26
2016-07-04T13:31:44.403Z,23.99
2016-07-04T13:32:44.420Z,23.93
2016-07-04T13:33:44.404Z,24.06
2016-07-04T13:34:44.415Z,24.36
2016-07-04T13:35:44.398Z,24.39
2016-07-04T13:36:44.430Z,24.38
2016-07-04T13:37:44.659Z,24.36
2016-07-04T13:38:44.435Z,24.24
2016-07-04T13:39:44.399Z,24.48
2016-07-04T13:40:44.376Z,24.6
2016-07-04T13:41:44.402Z,24.74
2016-07-04T13:42:44.394Z,24.93
2016-07-04T13:43:44.411Z,24.88
2016-07-04T13:44:44.393Z,25.03
2016-07-04T13:45:44.428Z,25.25
2016-07-04T13:46:44.416Z,25.59
2016-07-04T13:47:44.986Z,26.19
2016-07-04T13:48:44.401Z,26.41
2016-07-04T13:49:44.389Z,26.63
2016-07-04T13:50:44.609Z,26.81
2016-07-04T13:51:44.418Z,27.32
2016-07-04T13:52:44.389Z,27.58
2016-07-04T13:53:44.647Z,28.05
2016-07-04T13:54:45.265Z,27.8
2016-07-04T13:55:44.799Z,28.07
2016-07-04T13:56:44.458Z,28.14
2016-07-04T13:57:44.411Z,28.47
2016-07-04T13:58:44.429Z,28.37
2016-07-04T13:59:44.388Z,28.08
2016-07-04T14:00:44.437Z,27.92
2016-07-04T14:01:45.368Z,27.7
2016-07-04T14:02:48.106Z,27.36
2016-07-04T14:03:44.551Z,26.95
2016-07-04T14:04:44.423Z,26.65
2016-07-04T14:05:44.442Z,26.53
2016-07-04T14:06:44.487Z,26.47
2016-07-04T14:07:44.430Z,26.4
2016-07-04T14:08:44.486Z,26.15
2016-07-04T14:09:44.444Z,25.73
2016-07-04T14:10:44.442Z,25.65
2016-07-04T14:11:44.435Z,25.72
2016-07-04T14:12:44.442Z,25.55
2016-07-04T14:13:44.904Z,25.6
2016-07-04T14:14:44.408Z,25.59
2016-07-04T14:15:44.518Z,25.55
2016-07-04T14:16:44.897Z,25.62
2016-07-04T14:17:44.467Z,25.55
2016-07-04T14:18:44.503Z,25.33
2016-07-04T14:19:44.567Z,25.28
2016-07-04T14:20:44.460Z,25.28
2016-07-04T14:21:44.465Z,25.08
2016-07-04T14:22:44.513Z,24.88
2016-07-04T14:23:44.421Z,24.77
2016-07-04T14:24:44.458Z,24.69
2016-07-04T14:25:44.500Z,24.53
2016-07-04T14:26:44.456Z,24.5
2016-07-04T14:27:44.393Z,24.4
2016-07-04T14:28:44.521Z,24.3
2016-07-04T14:29:45.976Z,24.24
2016-07-04T14:30:44.568Z,24.18
2016-07-04T14:31:45.821Z,24.24